Escribe el Código OACI del Aeropuerto

Buscar por Aeropuerto o Ciudad

Información Meteorológica Actual

ESSA | Stockholm Arlanda Airport

Stockholm, Sweden

Última Actualización Hace 23 Minutos

Cielo Despejado

15 ºC Bajo Cero de Temperatura

Vientos Leves del Oeste

Temperatura

15 ºC Bajo Cero

Temperatura del Punto de Rocío

17 ºC Bajo Cero

Humedad Relativa

84.35 %

Dirección del Viento

Oeste (250º, Sin Variaciones de Consideración)

Velocidad del Viento

4 km/h (02 kt)

Ráfagas

No Hay

Visibilidad

Sin Reducciones de Consideración

Presión Reducida a Nivel del Mar

1017 hPa (Hectopascales)

Capas de Nubes

No Hay

METAR ESSA 071520Z 25002KT CAVOK M15/M17 Q1017 NOSIG

Pronóstico Meteorológico

ESSA | Stockholm Arlanda Airport

Stockholm, Sweden

Pronóstico válido para las próximas 20 Horas

A partir de este momento se espera:

Cielo Despejado

Vientos Leves de Direcciones Variables

Temperatura Máxima

Sin Datos

Temperatura Mínima

Sin Datos

TAF ESSA 071130Z 0712/0812 VRB02KT CAVOK PROB40 0721/0804 BKN003 PROB40 0809/0812 4000 -SN VV014